Time;durP1;ratioP1;P1;durP2;ratioP2;P2;SDS_P1;SDS_P2;PMS_P1;PMS_P2;Temp;Humidity;BMP_temperature;BMP_pressure;BME280_temperature;BME280_humidity;BME280_pressure;Samples;Min_cycle;Max_cycle;Signal;HPM_P1;HPM_P2
2024/04/03 00:00:01;;;;;;;17.52;4.03;;;8.80;99.90;;;;;;5035917;28;20133;-70
2024/04/03 00:02:27;;;;;;;23.17;4.95;;;8.90;99.90;;;;;;5020219;28;20412;-70
2024/04/03 00:04:53;;;;;;;25.52;4.82;;;8.80;99.90;;;;;;5023025;28;20044;-70
2024/04/03 00:07:18;;;;;;;19.58;4.70;;;8.90;99.90;;;;;;5028091;28;20041;-71
2024/04/03 00:09:44;;;;;;;21.55;4.40;;;8.90;99.90;;;;;;5016781;28;20113;-70
2024/04/03 00:12:10;;;;;;;19.35;4.25;;;8.80;99.90;;;;;;5027375;28;20549;-70
2024/04/03 00:14:36;;;;;;;16.52;4.28;;;8.80;99.90;;;;;;5028688;28;20038;-70
2024/04/03 00:17:02;;;;;;;14.05;3.92;;;8.80;99.90;;;;;;5024656;28;20053;-70
2024/04/03 00:19:28;;;;;;;19.92;4.57;;;8.90;99.90;;;;;;5024249;28;20056;-70
2024/04/03 00:21:53;;;;;;;22.13;4.63;;;8.80;99.90;;;;;;5021593;28;20479;-70
2024/04/03 00:24:19;;;;;;;15.98;4.45;;;8.90;99.90;;;;;;5027225;28;20423;-70
2024/04/03 00:26:45;;;;;;;18.25;4.57;;;8.90;99.90;;;;;;5015469;28;20045;-70
2024/04/03 00:29:11;;;;;;;18.83;4.82;;;8.80;99.90;;;;;;5033116;28;20046;-70
2024/04/03 00:31:37;;;;;;;20.23;4.70;;;8.80;99.90;;;;;;5022540;28;20033;-70
2024/04/03 00:34:03;;;;;;;15.55;4.32;;;8.90;99.90;;;;;;5022354;28;20397;-70
2024/04/03 00:36:29;;;;;;;19.95;5.13;;;8.80;99.90;;;;;;5020132;28;20120;-70
2024/04/03 00:38:55;;;;;;;22.98;5.20;;;8.80;99.90;;;;;;5012266;28;20034;-70
2024/04/03 00:41:21;;;;;;;18.75;4.88;;;9.30;99.90;;;;;;5025740;28;20044;-70
2024/04/03 00:43:49;;;;;;;23.42;5.45;;;8.90;99.90;;;;;;5012307;28;20030;-70
2024/04/03 00:46:15;;;;;;;23.08;5.10;;;8.80;99.90;;;;;;5026474;28;20395;-71
2024/04/03 00:48:42;;;;;;;21.38;5.47;;;8.90;99.90;;;;;;5026030;28;20085;-70
2024/04/03 00:51:10;;;;;;;18.35;4.82;;;8.80;99.90;;;;;;5016300;28;20038;-70
2024/04/03 00:53:37;;;;;;;15.57;5.68;;;8.80;99.90;;;;;;5017597;28;20034;-70
2024/04/03 00:56:07;;;;;;;24.45;5.80;;;8.90;99.90;;;;;;5028088;28;20492;-70
2024/04/03 00:58:33;;;;;;;21.08;5.80;;;8.80;99.90;;;;;;5039774;28;20045;-70
2024/04/03 01:00:58;;;;;;;24.52;6.20;;;8.80;99.90;;;;;;5025125;28;20241;-70
2024/04/03 01:03:24;;;;;;;19.42;5.70;;;9.00;99.90;;;;;;5013903;28;20124;-70
2024/04/03 01:06:05;;;;;;;25.67;6.40;;;8.90;99.90;;;;;;5022259;28;20040;-70
2024/04/03 01:08:32;;;;;;;24.00;6.07;;;8.90;99.90;;;;;;5015056;28;20041;-70
2024/04/03 01:10:59;;;;;;;20.90;5.55;;;8.90;99.90;;;;;;5022294;28;20037;-70
2024/04/03 01:13:26;;;;;;;25.88;6.10;;;9.00;99.90;;;;;;5013075;28;20092;-70
2024/04/03 01:16:00;;;;;;;18.25;5.53;;;8.90;99.90;;;;;;5042463;28;20049;-70
2024/04/03 01:18:29;;;;;;;21.55;5.43;;;9.00;99.90;;;;;;5014997;28;20052;-70
2024/04/03 01:20:55;;;;;;;19.02;5.30;;;9.00;99.90;;;;;;5015120;28;20053;-70
2024/04/03 01:23:22;;;;;;;29.05;6.75;;;9.00;99.90;;;;;;5024534;28;20184;-70
2024/04/03 01:25:48;;;;;;;20.63;5.30;;;9.00;99.90;;;;;;5023192;28;20064;-70
2024/04/03 01:28:15;;;;;;;18.80;5.25;;;9.00;99.90;;;;;;5028282;28;20044;-70
2024/04/03 01:30:41;;;;;;;17.63;5.60;;;9.00;99.90;;;;;;5026506;28;20080;-71
2024/04/03 01:33:06;;;;;;;22.95;5.68;;;9.00;99.90;;;;;;5028074;28;20077;-71
2024/04/03 01:35:33;;;;;;;24.08;6.25;;;9.00;99.90;;;;;;5026205;28;20113;-71
2024/04/03 01:37:58;;;;;;;20.35;5.15;;;9.00;99.90;;;;;;5012169;28;20069;-71
2024/04/03 01:40:24;;;;;;;22.80;6.13;;;9.00;99.90;;;;;;5021028;28;20468;-72
2024/04/03 01:42:50;;;;;;;25.45;6.18;;;9.00;99.90;;;;;;5021084;28;20037;-72
2024/04/03 01:45:16;;;;;;;24.58;5.78;;;9.00;99.90;;;;;;5040526;28;20041;-72
2024/04/03 01:47:45;;;;;;;20.30;5.10;;;9.00;99.90;;;;;;5022967;28;20534;-72
2024/04/03 01:50:12;;;;;;;20.60;5.25;;;9.10;99.90;;;;;;5022908;28;20045;-72
2024/04/03 01:52:38;;;;;;;19.65;4.70;;;9.00;99.90;;;;;;5030106;28;20512;-72
2024/04/03 01:55:03;;;;;;;17.92;4.85;;;9.00;99.90;;;;;;5028236;28;20037;-73
2024/04/03 01:57:29;;;;;;;20.88;5.70;;;9.10;99.90;;;;;;5044263;28;20491;-73
2024/04/03 01:59:55;;;;;;;21.73;5.40;;;9.10;99.90;;;;;;5021948;28;20116;-73
2024/04/03 02:02:20;;;;;;;19.90;5.20;;;9.10;99.90;;;;;;5015037;28;20072;-72
2024/04/03 02:04:46;;;;;;;19.83;5.47;;;9.10;99.90;;;;;;5020324;28;20041;-72
2024/04/03 02:07:12;;;;;;;18.30;5.45;;;9.10;99.90;;;;;;5002745;28;20465;-72
2024/04/03 02:09:38;;;;;;;19.45;5.13;;;9.10;99.90;;;;;;5021811;28;20619;-73
2024/04/03 02:12:04;;;;;;;17.20;5.43;;;9.10;99.90;;;;;;5026987;28;20065;-72
2024/04/03 02:14:30;;;;;;;20.83;5.03;;;9.10;99.90;;;;;;5025411;28;20377;-72
2024/04/03 02:16:56;;;;;;;16.27;5.13;;;9.10;99.90;;;;;;5023469;28;20091;-72
2024/04/03 02:19:22;;;;;;;16.73;4.97;;;9.20;99.90;;;;;;5026316;28;20077;-72
2024/04/03 02:21:48;;;;;;;16.42;5.03;;;9.20;99.90;;;;;;5020425;28;20072;-72
2024/04/03 02:24:13;;;;;;;16.10;5.70;;;9.20;99.90;;;;;;5029597;28;20041;-72
2024/04/03 02:26:39;;;;;;;16.85;5.18;;;9.20;99.90;;;;;;5028702;28;20033;-72
2024/04/03 02:29:05;;;;;;;22.55;5.45;;;9.20;99.90;;;;;;5028301;28;20041;-73
2024/04/03 02:31:31;;;;;;;12.55;4.95;;;9.20;99.90;;;;;;5010033;28;20404;-73
2024/04/03 02:33:56;;;;;;;22.70;6.05;;;9.20;99.90;;;;;;5026269;28;20076;-73
2024/04/03 02:36:22;;;;;;;17.60;5.53;;;9.20;99.90;;;;;;5030306;28;20041;-73
2024/04/03 02:38:48;;;;;;;18.63;6.13;;;9.20;99.90;;;;;;5025117;28;20108;-73
2024/04/03 02:41:17;;;;;;;16.58;5.13;;;9.20;99.90;;;;;;5019697;28;20037;-72
2024/04/03 02:43:43;;;;;;;14.15;5.50;;;9.20;99.90;;;;;;5020267;28;20491;-74
2024/04/03 02:46:09;;;;;;;15.65;5.53;;;9.20;99.90;;;;;;5028317;28;20040;-72
2024/04/03 02:48:35;;;;;;;14.05;5.32;;;9.20;99.90;;;;;;5018169;28;20033;-73
2024/04/03 02:51:09;;;;;;;16.98;5.82;;;9.20;99.90;;;;;;5034285;28;20511;-73
2024/04/03 02:53:35;;;;;;;19.48;5.82;;;9.20;99.90;;;;;;5015331;28;20046;-73
2024/04/03 02:56:03;;;;;;;23.83;5.97;;;9.20;99.90;;;;;;5041295;28;20517;-73
2024/04/03 02:58:29;;;;;;;17.60;5.65;;;9.20;99.90;;;;;;5018818;28;20124;-73
2024/04/03 03:01:06;;;;;;;18.38;5.88;;;9.30;99.90;;;;;;5018555;28;20463;-73
2024/04/03 03:03:32;;;;;;;16.38;6.07;;;9.20;99.90;;;;;;5017807;28;20052;-73
2024/04/03 03:05:58;;;;;;;18.17;6.05;;;9.20;99.90;;;;;;5013519;28;20033;-73
2024/04/03 03:08:25;;;;;;;15.98;6.45;;;9.30;99.90;;;;;;5041951;28;20113;-73
2024/04/03 03:10:51;;;;;;;20.23;5.95;;;9.30;99.90;;;;;;5020964;28;20108;-73
2024/04/03 03:13:17;;;;;;;21.73;6.32;;;9.30;99.90;;;;;;5011319;28;20037;-73
2024/04/03 03:16:00;;;;;;;15.38;6.40;;;9.30;99.90;;;;;;5017136;28;20037;-73
2024/04/03 03:18:30;;;;;;;19.05;6.63;;;9.30;99.90;;;;;;5018943;28;20515;-73
2024/04/03 03:20:56;;;;;;;26.00;6.30;;;9.30;99.90;;;;;;5021263;28;20037;-73
2024/04/03 03:23:22;;;;;;;21.95;6.70;;;9.30;99.90;;;;;;5025304;28;20101;-73
2024/04/03 03:25:52;;;;;;;20.15;7.18;;;9.30;99.90;;;;;;5015867;28;20045;-73
2024/04/03 03:28:19;;;;;;;23.30;7.30;;;9.30;99.90;;;;;;5026143;28;20060;-73
2024/04/03 03:30:53;;;;;;;19.27;7.72;;;9.30;99.90;;;;;;5021033;28;20041;-73
2024/04/03 03:33:19;;;;;;;17.40;7.50;;;9.30;99.90;;;;;;5009506;28;20099;-73
2024/04/03 03:35:56;;;;;;;26.45;9.38;;;9.30;99.90;;;;;;5024748;28;20493;-73
2024/04/03 03:38:22;;;;;;;20.63;8.55;;;9.30;99.90;;;;;;5038825;28;20687;-73
2024/04/03 03:40:48;;;;;;;20.65;8.27;;;9.30;99.90;;;;;;5018415;28;20132;-73
2024/04/03 03:43:14;;;;;;;18.58;8.50;;;9.30;99.90;;;;;;5021505;28;20080;-73
2024/04/03 03:45:44;;;;;;;22.27;9.43;;;9.30;99.90;;;;;;5007674;28;20465;-73
2024/04/03 03:48:10;;;;;;;20.92;9.07;;;9.30;99.90;;;;;;5017249;28;20145;-73
2024/04/03 03:53:20;;;;;;;21.92;8.98;;;9.40;99.90;;;;;;5009634;28;20108;-73
2024/04/03 03:55:46;;;;;;;25.88;9.35;;;9.40;99.90;;;;;;5017584;28;20432;-73
2024/04/03 03:58:11;;;;;;;22.30;8.63;;;9.30;99.90;;;;;;5029672;28;20399;-71
2024/04/03 04:00:37;;;;;;;19.05;9.63;;;9.30;99.90;;;;;;5016545;28;20133;-71
2024/04/03 04:03:03;;;;;;;26.17;9.50;;;9.30;99.90;;;;;;5010013;28;20140;-71
2024/04/03 04:05:28;;;;;;;20.67;9.30;;;9.40;99.90;;;;;;5021400;28;20087;-71
2024/04/03 04:07:54;;;;;;;20.67;10.73;;;9.30;99.90;;;;;;5027554;28;20042;-71
2024/04/03 04:10:20;;;;;;;20.58;9.48;;;9.30;99.90;;;;;;5025137;28;20065;-71
2024/04/03 04:12:45;;;;;;;21.00;9.32;;;9.40;99.90;;;;;;5028488;28;20504;-71
2024/04/03 04:15:11;;;;;;;21.13;9.02;;;9.40;99.90;;;;;;5032080;28;20475;-71
2024/04/03 04:17:37;;;;;;;18.73;9.18;;;9.40;99.90;;;;;;5027873;28;20045;-71
2024/04/03 04:20:07;;;;;;;20.98;10.02;;;9.40;99.90;;;;;;5023424;28;20129;-71
2024/04/03 04:22:34;;;;;;;19.27;9.48;;;9.40;99.90;;;;;;5016462;28;20492;-71
2024/04/03 04:25:04;;;;;;;18.27;9.02;;;9.40;99.90;;;;;;5025904;28;20073;-71
2024/04/03 04:27:33;;;;;;;21.58;10.15;;;9.40;99.90;;;;;;5026603;28;20075;-70
2024/04/03 04:29:59;;;;;;;17.10;9.43;;;9.40;99.90;;;;;;5026474;28;20077;-71
2024/04/03 04:32:24;;;;;;;19.30;9.98;;;9.40;99.90;;;;;;5013639;28;20528;-71
2024/04/03 04:34:52;;;;;;;17.38;9.82;;;9.40;99.90;;;;;;5017403;28;20034;-71
2024/04/03 04:37:18;;;;;;;18.85;10.05;;;9.40;99.90;;;;;;5027723;28;20043;-70
2024/04/03 04:39:44;;;;;;;17.73;9.65;;;9.40;99.90;;;;;;5023442;28;20038;-70
2024/04/03 04:42:10;;;;;;;16.65;9.93;;;9.50;99.90;;;;;;5030148;28;20072;-70
2024/04/03 04:44:36;;;;;;;15.25;9.45;;;9.50;99.90;;;;;;5017875;28;20217;-70
2024/04/03 04:47:02;;;;;;;19.35;9.80;;;9.50;99.90;;;;;;5018460;28;20404;-71
2024/04/03 04:49:29;;;;;;;18.02;9.98;;;9.50;99.90;;;;;;5036911;28;20046;-70
2024/04/03 04:51:55;;;;;;;19.83;10.23;;;9.50;99.90;;;;;;5030649;28;20045;-70
2024/04/03 04:54:22;;;;;;;18.33;10.20;;;9.50;99.90;;;;;;5028625;28;20056;-70
2024/04/03 04:56:48;;;;;;;19.17;10.90;;;9.50;99.90;;;;;;5021479;28;20038;-70
2024/04/03 04:59:14;;;;;;;19.80;10.43;;;9.50;99.90;;;;;;5014947;28;20084;-70
2024/04/03 05:01:40;;;;;;;18.85;10.68;;;9.50;99.90;;;;;;5030605;28;20128;-70
2024/04/03 05:04:07;;;;;;;19.92;10.43;;;9.50;99.90;;;;;;5027724;28;20484;-70
2024/04/03 05:06:33;;;;;;;20.95;10.38;;;9.60;99.90;;;;;;5021381;28;20084;-70
2024/04/03 05:08:59;;;;;;;18.55;10.30;;;9.60;99.90;;;;;;5013170;28;20058;-70
2024/04/03 05:11:25;;;;;;;18.20;10.52;;;9.60;99.90;;;;;;5020822;28;20120;-70
2024/04/03 05:13:51;;;;;;;18.95;11.05;;;9.50;99.90;;;;;;5017912;28;20540;-70
2024/04/03 05:16:20;;;;;;;20.25;10.43;;;9.60;99.90;;;;;;5024243;28;20128;-70
2024/04/03 05:18:46;;;;;;;18.60;10.52;;;9.60;99.90;;;;;;5029993;28;20049;-70
2024/04/03 05:21:13;;;;;;;21.13;11.30;;;9.60;99.90;;;;;;5025234;28;20076;-70
2024/04/03 05:23:38;;;;;;;18.75;11.00;;;9.60;99.90;;;;;;5020341;28;20498;-70
2024/04/03 05:26:06;;;;;;;19.70;10.55;;;9.60;99.90;;;;;;5029287;28;20065;-70
2024/04/03 05:28:33;;;;;;;24.25;11.88;;;9.60;99.90;;;;;;5015315;28;20067;-70
2024/04/03 05:31:22;;;;;;;21.60;12.00;;;9.60;99.90;;;;;;5020943;28;20094;-70
2024/04/03 05:33:49;;;;;;;24.48;12.05;;;9.60;99.90;;;;;;5021236;28;20117;-70
2024/04/03 05:36:15;;;;;;;18.80;10.93;;;9.60;99.90;;;;;;5028670;28;20484;-70
2024/04/03 05:38:41;;;;;;;21.88;11.23;;;9.60;99.90;;;;;;5022984;28;20048;-70
2024/04/03 05:41:10;;;;;;;19.10;11.38;;;9.60;99.90;;;;;;5018094;28;20041;-69
2024/04/03 05:43:36;;;;;;;19.63;11.80;;;9.60;99.90;;;;;;5014901;28;20033;-70
2024/04/03 05:46:02;;;;;;;23.02;11.35;;;9.60;99.90;;;;;;5025831;28;20045;-70
2024/04/03 05:48:28;;;;;;;22.50;11.07;;;9.60;99.90;;;;;;5022649;28;20534;-70
2024/04/03 05:51:07;;;;;;;19.25;11.57;;;9.60;99.90;;;;;;5025769;28;20127;-70
2024/04/03 05:53:34;;;;;;;19.80;11.45;;;9.60;99.90;;;;;;5020031;28;20442;-70
2024/04/03 05:56:02;;;;;;;18.75;10.95;;;9.60;99.90;;;;;;5022017;28;20033;-70
2024/04/03 05:58:29;;;;;;;20.13;10.82;;;9.60;99.90;;;;;;5026292;28;20049;-69
2024/04/03 06:00:57;;;;;;;18.75;11.55;;;9.70;99.90;;;;;;5027905;28;20213;-69
2024/04/03 06:03:23;;;;;;;19.65;11.73;;;9.70;99.90;;;;;;5025520;28;20119;-70
2024/04/03 06:05:53;;;;;;;20.38;10.90;;;9.70;99.90;;;;;;5020017;28;20134;-69
2024/04/03 06:08:20;;;;;;;18.70;10.55;;;9.70;99.90;;;;;;5024816;28;20513;-70
2024/04/03 06:10:46;;;;;;;16.35;10.38;;;9.70;99.90;;;;;;5016968;28;20037;-70
2024/04/03 06:13:11;;;;;;;21.00;10.50;;;9.70;99.90;;;;;;5028697;28;20040;-70
2024/04/03 06:15:37;;;;;;;16.73;10.05;;;9.70;99.90;;;;;;5020352;28;20069;-72
2024/04/03 06:18:03;;;;;;;17.15;10.57;;;9.70;99.90;;;;;;5028506;28;20033;-69
2024/04/03 06:20:28;;;;;;;21.73;10.43;;;9.70;99.90;;;;;;5023396;28;20041;-69
2024/04/03 06:22:54;;;;;;;18.70;9.75;;;9.70;99.90;;;;;;5024582;28;20404;-70
2024/04/03 06:25:21;;;;;;;17.17;9.23;;;9.70;99.90;;;;;;5021027;28;20045;-70
2024/04/03 06:27:46;;;;;;;15.75;8.57;;;9.70;99.90;;;;;;5023691;28;20042;-70
2024/04/03 06:30:12;;;;;;;19.35;9.43;;;9.80;99.90;;;;;;5027859;28;20132;-70
2024/04/03 06:32:39;;;;;;;15.60;8.68;;;9.70;99.90;;;;;;5014252;28;20068;-70
2024/04/03 06:35:05;;;;;;;15.23;9.07;;;9.80;99.90;;;;;;5017693;28;20037;-70
2024/04/03 06:37:31;;;;;;;17.08;9.63;;;9.80;99.90;;;;;;5021893;28;20046;-70
2024/04/03 06:39:57;;;;;;;16.80;9.63;;;9.80;99.90;;;;;;5029910;28;20072;-70
2024/04/03 06:42:23;;;;;;;17.77;9.05;;;9.80;99.90;;;;;;5026787;28;20041;-70
2024/04/03 06:44:50;;;;;;;20.15;9.02;;;9.70;99.90;;;;;;5018664;28;20096;-70
2024/04/03 06:47:16;;;;;;;15.75;7.90;;;9.80;99.90;;;;;;5019427;28;20075;-69
2024/04/03 06:49:42;;;;;;;14.65;7.93;;;9.80;99.90;;;;;;5003334;28;20417;-70
2024/04/03 06:52:09;;;;;;;14.10;8.32;;;9.80;99.90;;;;;;5024733;28;20095;-70
2024/04/03 06:54:35;;;;;;;13.10;7.50;;;9.80;99.90;;;;;;5023914;28;20053;-69
2024/04/03 06:57:02;;;;;;;17.33;7.43;;;9.80;99.90;;;;;;5021461;28;20428;-69
2024/04/03 06:59:27;;;;;;;13.80;7.68;;;9.80;99.90;;;;;;5025854;28;20041;-69
2024/04/03 07:01:53;;;;;;;14.05;7.45;;;9.80;99.90;;;;;;5017361;28;20390;-69
2024/04/03 07:04:19;;;;;;;12.57;7.60;;;9.90;99.90;;;;;;5019688;28;20412;-69
2024/04/03 07:06:44;;;;;;;13.35;7.75;;;9.90;99.90;;;;;;5017462;28;20100;-69
2024/04/03 07:09:10;;;;;;;13.75;7.03;;;9.90;99.90;;;;;;5024986;28;20042;-70
2024/04/03 07:11:36;;;;;;;19.98;7.80;;;9.90;99.90;;;;;;5026233;28;20041;-69
2024/04/03 07:14:02;;;;;;;15.90;7.32;;;10.00;99.90;;;;;;5025662;28;20040;-69
2024/04/03 07:16:27;;;;;;;13.45;7.38;;;9.90;99.90;;;;;;5017413;28;20052;-69
2024/04/03 07:18:54;;;;;;;11.95;7.07;;;10.00;99.90;;;;;;5025657;28;20409;-69
2024/04/03 07:21:20;;;;;;;16.75;7.30;;;10.00;99.90;;;;;;5020230;28;20102;-69
2024/04/03 07:23:46;;;;;;;15.80;7.43;;;10.00;99.90;;;;;;5025676;28;20056;-69
2024/04/03 07:26:12;;;;;;;12.60;6.90;;;10.00;99.90;;;;;;5022065;28;20397;-69
2024/04/03 07:28:38;;;;;;;11.93;6.43;;;10.00;99.90;;;;;;5025086;28;20480;-69
2024/04/03 07:31:03;;;;;;;11.82;6.53;;;10.00;99.90;;;;;;5021392;28;20520;-69
2024/04/03 07:33:29;;;;;;;9.88;6.35;;;10.10;99.90;;;;;;5027324;28;20061;-69
2024/04/03 07:35:55;;;;;;;12.85;6.53;;;10.10;99.90;;;;;;5026666;28;20087;-69
2024/04/03 07:38:20;;;;;;;11.68;6.05;;;10.10;99.90;;;;;;5025057;28;20045;-69
2024/04/03 07:40:54;;;;;;;15.70;6.00;;;10.10;99.90;;;;;;5025210;28;20526;-69
2024/04/03 07:43:20;;;;;;;9.52;5.60;;;10.10;99.90;;;;;;5017508;28;20407;-69
2024/04/03 07:45:45;;;;;;;9.57;5.60;;;10.20;99.90;;;;;;5029268;28;20034;-69
2024/04/03 07:48:11;;;;;;;19.27;6.78;;;10.20;99.90;;;;;;5021797;28;20046;-70
2024/04/03 07:50:39;;;;;;;11.70;6.10;;;10.20;99.90;;;;;;5026442;28;20400;-69
2024/04/03 07:53:07;;;;;;;12.52;6.22;;;10.20;99.90;;;;;;5018680;28;20079;-69
2024/04/03 07:55:35;;;;;;;12.40;6.00;;;10.30;99.90;;;;;;5032454;28;20091;-69
2024/04/03 07:58:02;;;;;;;10.35;5.82;;;10.30;99.90;;;;;;5026906;28;20040;-69
2024/04/03 08:00:27;;;;;;;11.95;6.00;;;10.30;99.90;;;;;;5019539;28;20060;-69
2024/04/03 08:02:53;;;;;;;11.68;5.38;;;10.30;99.90;;;;;;5025244;28;20037;-71
2024/04/03 08:05:19;;;;;;;9.85;5.50;;;10.30;99.90;;;;;;5022502;28;20121;-69
2024/04/03 08:07:45;;;;;;;17.00;8.48;;;10.30;99.90;;;;;;5023395;28;20507;-70
2024/04/03 08:10:12;;;;;;;9.70;6.10;;;10.30;99.90;;;;;;5029260;28;20045;-70
2024/04/03 08:12:39;;;;;;;10.20;5.28;;;10.40;99.90;;;;;;5020733;28;20478;-70
2024/04/03 08:15:06;;;;;;;10.95;6.05;;;10.40;99.90;;;;;;5024596;28;20113;-70
2024/04/03 08:17:32;;;;;;;12.43;5.88;;;10.40;99.90;;;;;;5024176;28;20099;-70
2024/04/03 08:19:58;;;;;;;10.38;5.53;;;10.40;99.90;;;;;;5023493;28;20034;-70
2024/04/03 08:22:24;;;;;;;11.00;5.07;;;10.40;99.90;;;;;;5030429;28;20493;-70
2024/04/03 08:24:51;;;;;;;15.68;4.93;;;10.40;99.90;;;;;;5027154;28;20116;-69
2024/04/03 08:27:17;;;;;;;10.27;5.30;;;10.50;99.90;;;;;;5026103;28;20037;-69
2024/04/03 08:29:44;;;;;;;9.77;4.45;;;10.50;99.90;;;;;;5022905;28;20037;-70
2024/04/03 08:32:10;;;;;;;7.93;4.05;;;10.50;99.90;;;;;;5032025;28;20038;-69
2024/04/03 08:34:37;;;;;;;8.63;4.72;;;10.50;99.90;;;;;;5021907;28;20077;-70
2024/04/03 08:37:04;;;;;;;12.60;4.63;;;10.40;99.90;;;;;;5047056;22;20040;-71
2024/04/03 08:39:30;;;;;;;10.82;4.40;;;10.40;99.90;;;;;;5051825;28;20052;-72
2024/04/03 08:41:59;;;;;;;12.50;4.90;;;10.40;99.90;;;;;;5054268;28;20033;-72
2024/04/03 08:44:31;;;;;;;13.48;4.93;;;10.40;99.90;;;;;;5071950;28;20040;-72
2024/04/03 08:46:58;;;;;;;8.50;4.50;;;10.40;99.90;;;;;;5072106;28;20037;-71
2024/04/03 08:49:34;;;;;;;9.18;4.70;;;10.40;99.90;;;;;;5070792;28;20453;-72
2024/04/03 08:52:07;;;;;;;11.43;5.13;;;10.40;99.90;;;;;;5070545;28;20407;-71
2024/04/03 08:54:34;;;;;;;10.18;4.95;;;10.40;99.90;;;;;;5067288;28;20044;-71
2024/04/03 08:57:03;;;;;;;14.75;5.55;;;10.40;99.90;;;;;;5063232;28;20119;-71
2024/04/03 08:59:32;;;;;;;13.80;5.00;;;10.40;99.90;;;;;;5064350;28;20059;-71
2024/04/03 09:01:58;;;;;;;7.28;4.38;;;10.50;99.90;;;;;;5062619;28;20032;-71
2024/04/03 09:04:24;;;;;;;7.97;4.63;;;10.50;99.90;;;;;;5057590;28;20426;-71
2024/04/03 09:06:50;;;;;;;10.55;4.50;;;10.50;99.90;;;;;;5058587;28;20040;-71
2024/04/03 09:09:27;;;;;;;10.18;4.85;;;10.60;99.90;;;;;;5065789;28;20037;-71
2024/04/03 09:12:05;;;;;;;11.50;4.68;;;10.60;99.90;;;;;;5060112;28;20076;-71
2024/04/03 09:14:31;;;;;;;8.93;4.53;;;10.70;99.90;;;;;;5061595;28;20505;-72
2024/04/03 09:17:01;;;;;;;8.63;4.35;;;10.70;99.90;;;;;;5066486;28;20111;-71
2024/04/03 09:19:28;;;;;;;9.80;4.05;;;10.70;99.90;;;;;;5063445;28;20131;-71
2024/04/03 09:21:55;;;;;;;10.52;3.90;;;10.70;99.90;;;;;;5064214;28;20040;-71
2024/04/03 09:24:21;;;;;;;7.63;4.30;;;10.80;99.90;;;;;;5063825;28;20041;-71
2024/04/03 09:26:48;;;;;;;10.15;4.32;;;10.90;99.90;;;;;;5062658;28;20029;-71
2024/04/03 09:29:17;;;;;;;10.48;4.82;;;10.90;99.90;;;;;;5060562;28;20474;-71
2024/04/03 09:31:47;;;;;;;9.35;4.75;;;11.00;99.90;;;;;;5055717;28;20056;-71
2024/04/03 09:34:13;;;;;;;8.60;4.13;;;11.00;99.90;;;;;;5058989;28;20502;-71
2024/04/03 09:36:40;;;;;;;9.68;3.97;;;11.10;99.90;;;;;;5065344;28;20037;-72
2024/04/03 09:39:07;;;;;;;7.28;3.85;;;11.20;99.90;;;;;;5063169;28;20048;-71
2024/04/03 09:41:38;;;;;;;9.00;4.15;;;11.20;99.90;;;;;;5080405;28;20124;-71
2024/04/03 09:44:08;;;;;;;9.35;3.95;;;11.20;99.90;;;;;;5060932;28;20055;-71
2024/04/03 09:46:58;;;;;;;11.90;3.88;;;11.20;99.90;;;;;;5055503;28;20107;-71
2024/04/03 09:49:27;;;;;;;11.27;3.85;;;11.30;99.90;;;;;;5055670;28;20048;-71
2024/04/03 09:51:55;;;;;;;9.23;3.80;;;11.20;99.90;;;;;;5060145;28;20134;-71
2024/04/03 09:54:22;;;;;;;12.50;4.03;;;11.20;99.90;;;;;;5061975;28;20037;-71
2024/04/03 09:56:49;;;;;;;10.07;3.60;;;11.20;99.90;;;;;;5065483;28;20036;-71
2024/04/03 09:59:16;;;;;;;14.35;4.10;;;11.20;99.90;;;;;;5061087;28;20090;-71
2024/04/03 10:01:42;;;;;;;8.75;3.45;;;11.20;99.90;;;;;;5065070;28;20033;-71
2024/04/03 10:04:09;;;;;;;8.73;3.55;;;11.10;99.90;;;;;;5058347;28;20089;-71
2024/04/03 10:06:36;;;;;;;8.90;3.80;;;11.10;99.90;;;;;;5056662;28;20388;-71
2024/04/03 10:09:21;;;;;;;9.80;3.80;;;11.10;99.90;;;;;;5062549;28;20131;-71
2024/04/03 10:12:16;;;;;;;7.28;2.97;;;11.10;99.90;;;;;;5073388;28;20226;-71
2024/04/03 10:14:42;;;;;;;9.90;3.92;;;11.00;99.90;;;;;;5037437;28;20048;-71
2024/04/03 10:17:16;;;;;;;6.80;3.55;;;11.00;99.90;;;;;;5064952;28;20103;-71
2024/04/03 10:19:42;;;;;;;12.82;4.05;;;11.10;99.90;;;;;;5064873;28;20032;-72
2024/04/03 10:22:14;;;;;;;10.65;3.40;;;11.10;99.90;;;;;;5058742;28;20047;-71
2024/04/03 10:24:43;;;;;;;8.93;3.28;;;11.20;99.90;;;;;;5059852;28;20576;-71
2024/04/03 10:27:09;;;;;;;7.90;4.05;;;11.20;99.90;;;;;;5060198;28;20206;-71
2024/04/03 10:29:36;;;;;;;7.13;3.55;;;11.30;99.90;;;;;;5064378;28;20094;-71
2024/04/03 10:32:02;;;;;;;7.50;3.33;;;11.30;99.90;;;;;;5061985;28;20400;-71
2024/04/03 10:34:27;;;;;;;8.18;3.35;;;11.30;99.90;;;;;;5063681;28;20076;-71
2024/04/03 10:36:53;;;;;;;8.35;3.40;;;11.30;99.90;;;;;;5060162;28;20036;-72
2024/04/03 10:39:19;;;;;;;7.95;3.40;;;11.30;99.90;;;;;;5063756;28;20666;-71
2024/04/03 10:41:45;;;;;;;9.73;3.55;;;11.20;99.90;;;;;;5063837;28;20038;-72
2024/04/03 10:44:13;;;;;;;9.23;3.65;;;11.30;99.90;;;;;;5061951;28;20066;-72
2024/04/03 10:46:39;;;;;;;10.15;3.90;;;11.20;99.90;;;;;;5064721;28;20032;-71
2024/04/03 10:49:05;;;;;;;13.27;3.63;;;11.20;99.90;;;;;;5063742;28;20049;-71
2024/04/03 10:51:31;;;;;;;5.57;3.40;;;11.20;99.90;;;;;;5061322;28;20072;-71
2024/04/03 10:53:57;;;;;;;10.00;4.18;;;11.20;99.90;;;;;;5064245;28;20453;-71
2024/04/03 10:56:24;;;;;;;8.13;3.50;;;11.20;99.90;;;;;;5063584;28;20419;-71
2024/04/03 10:58:50;;;;;;;11.57;3.70;;;11.20;99.90;;;;;;5063929;28;20044;-71
2024/04/03 11:01:16;;;;;;;7.05;3.28;;;11.20;99.90;;;;;;5062903;28;20040;-72
2024/04/03 11:03:43;;;;;;;10.05;3.45;;;11.20;99.90;;;;;;5064665;28;20119;-71
2024/04/03 11:06:12;;;;;;;10.75;3.55;;;11.20;99.90;;;;;;5061623;28;20094;-71
2024/04/03 11:08:39;;;;;;;7.38;3.17;;;11.30;99.90;;;;;;5054274;28;20067;-71
2024/04/03 11:11:07;;;;;;;5.30;3.38;;;11.40;99.90;;;;;;5056709;28;20094;-70
2024/04/03 11:13:33;;;;;;;6.20;3.47;;;11.50;99.90;;;;;;5058830;28;20040;-70
2024/04/03 11:15:59;;;;;;;10.85;3.97;;;11.50;99.90;;;;;;5055807;28;20040;-70
2024/04/03 11:18:26;;;;;;;8.60;3.35;;;11.50;99.90;;;;;;5059417;28;20032;-72
2024/04/03 11:20:52;;;;;;;6.07;3.47;;;11.50;99.90;;;;;;5063268;28;20043;-70
2024/04/03 11:23:18;;;;;;;8.82;3.35;;;11.50;99.90;;;;;;5066985;28;20125;-71
2024/04/03 11:25:44;;;;;;;5.85;3.38;;;11.50;99.90;;;;;;5066689;28;20143;-71
2024/04/03 11:28:10;;;;;;;8.77;3.40;;;11.50;99.90;;;;;;5061387;28;20103;-71
2024/04/03 11:30:40;;;;;;;6.63;3.10;;;11.50;99.90;;;;;;5064324;28;20041;-71
2024/04/03 11:33:06;;;;;;;9.43;3.70;;;11.40;99.90;;;;;;5063635;28;20199;-71
2024/04/03 11:35:32;;;;;;;7.82;3.55;;;11.40;99.90;;;;;;5058582;28;20500;-72
2024/04/03 11:38:00;;;;;;;8.15;3.65;;;11.40;99.90;;;;;;5067758;28;20033;-72
2024/04/03 11:40:27;;;;;;;9.55;3.45;;;11.40;99.90;;;;;;5067642;28;20044;-71
2024/04/03 11:42:53;;;;;;;9.15;3.95;;;11.40;99.90;;;;;;5069623;28;20044;-71
2024/04/03 11:45:18;;;;;;;7.25;4.07;;;11.40;99.90;;;;;;5060422;28;20255;-71
2024/04/03 11:47:44;;;;;;;9.90;4.03;;;11.50;99.90;;;;;;5072650;28;20039;-71
2024/04/03 11:50:10;;;;;;;5.32;3.60;;;11.00;99.90;;;;;;5072595;28;20044;-71
2024/04/03 11:52:36;;;;;;;7.93;3.70;;;11.50;99.90;;;;;;5053971;28;20041;-71
2024/04/03 11:55:03;;;;;;;8.90;4.22;;;11.50;99.90;;;;;;5072265;28;20033;-71
2024/04/03 11:57:29;;;;;;;8.10;4.00;;;11.50;99.90;;;;;;5070681;28;20109;-71
2024/04/03 11:59:55;;;;;;;6.65;3.75;;;11.60;99.90;;;;;;5071850;28;20471;-71
2024/04/03 12:02:22;;;;;;;8.98;4.10;;;11.60;99.90;;;;;;5068237;28;20087;-71
2024/04/03 12:04:48;;;;;;;7.75;3.80;;;11.50;99.90;;;;;;5071246;28;20509;-72
2024/04/03 12:07:14;;;;;;;6.75;3.60;;;11.50;99.90;;;;;;5070866;28;20048;-71
2024/04/03 12:09:42;;;;;;;7.57;3.50;;;11.50;99.90;;;;;;5070279;28;20040;-72
2024/04/03 12:12:09;;;;;;;6.82;3.85;;;11.50;99.90;;;;;;5072403;28;20511;-72
2024/04/03 12:14:35;;;;;;;5.13;3.42;;;11.50;99.90;;;;;;5068816;28;20106;-72
2024/04/03 12:17:04;;;;;;;7.35;3.38;;;11.50;99.90;;;;;;5072075;28;20028;-73
2024/04/03 12:19:44;;;;;;;7.88;3.85;;;11.40;99.90;;;;;;5070057;28;20040;-72
2024/04/03 12:22:13;;;;;;;5.90;3.60;;;11.40;99.90;;;;;;5071114;28;20063;-72
2024/04/03 12:24:42;;;;;;;7.03;4.32;;;11.40;99.90;;;;;;5072341;28;20048;-73
2024/04/03 12:27:07;;;;;;;7.63;4.07;;;11.50;99.90;;;;;;5054222;28;20043;-72
2024/04/03 12:29:33;;;;;;;9.05;4.30;;;11.60;99.90;;;;;;5070858;28;20036;-72
2024/04/03 12:31:59;;;;;;;5.95;4.05;;;11.60;99.90;;;;;;5072858;28;20040;-73
2024/04/03 12:34:25;;;;;;;7.00;4.20;;;11.80;99.90;;;;;;5067316;28;20470;-72
2024/04/03 12:36:51;;;;;;;6.22;3.55;;;11.90;99.90;;;;;;5072810;28;20537;-71
2024/04/03 12:39:17;;;;;;;5.90;3.92;;;12.00;99.90;;;;;;5080952;28;20044;-72
2024/04/03 12:41:43;;;;;;;4.80;2.97;;;12.10;99.90;;;;;;5072007;28;20112;-71
2024/04/03 12:44:08;;;;;;;4.40;2.88;;;12.20;99.90;;;;;;5072685;28;20120;-71